Time;durP1;ratioP1;P1;durP2;ratioP2;P2;SDS_P1;SDS_P2;PMS_P1;PMS_P2;Temp;Humidity;BMP_temperature;BMP_pressure;BME280_temperature;BME280_humidity;BME280_pressure;Samples;Min_cycle;Max_cycle;Signal;HPM_P1;HPM_P2
2022/01/06 00:00:37;;;;;;;39.13;6.18;;;;;;;0.94;100.00;101391.13;5051504;28;20032;-69
2022/01/06 00:03:02;;;;;;;32.60;5.97;;;;;;;0.92;100.00;101392.78;5053260;28;20029;-68
2022/01/06 00:05:28;;;;;;;33.53;6.38;;;;;;;0.92;100.00;101392.78;5053361;28;20119;-68
2022/01/06 00:07:53;;;;;;;31.75;7.30;;;;;;;0.97;100.00;101395.63;5049150;28;20025;-69
2022/01/06 00:10:19;;;;;;;29.17;7.13;;;;;;;0.95;100.00;101400.75;5053408;28;20017;-69
2022/01/06 00:25:54;;;;;;;35.83;9.10;;;;;;;0.75;100.00;101407.50;5052022;28;20094;-69
2022/01/06 00:28:19;;;;;;;37.17;9.57;;;;;;;0.73;100.00;101406.53;5053060;28;20037;-69
2022/01/06 00:30:45;;;;;;;37.78;8.98;;;;;;;0.66;100.00;101410.50;5052609;28;20029;-70
2022/01/06 00:33:11;;;;;;;37.78;9.25;;;;;;;0.65;100.00;101408.72;5052740;28;20025;-69
2022/01/06 00:35:36;;;;;;;34.03;9.25;;;;;;;0.64;100.00;101419.97;5052894;28;20029;-69
2022/01/06 00:38:02;;;;;;;37.28;9.27;;;;;;;0.59;100.00;101424.00;5052349;28;20383;-69
2022/01/06 00:40:27;;;;;;;36.70;9.73;;;;;;;0.58;100.00;101419.59;5052912;28;20025;-70
2022/01/06 00:42:53;;;;;;;36.90;9.93;;;;;;;0.57;100.00;101425.63;5051310;28;20029;-70
2022/01/06 00:45:18;;;;;;;37.88;10.05;;;;;;;0.51;100.00;101426.19;5051227;28;20146;-70
2022/01/06 00:47:44;;;;;;;37.90;9.80;;;;;;;0.48;100.00;101433.84;5052690;28;20032;-70
2022/01/06 00:50:10;;;;;;;36.38;9.50;;;;;;;0.43;100.00;101437.00;5052519;28;20552;-70
2022/01/06 00:52:36;;;;;;;39.53;9.70;;;;;;;0.38;100.00;101438.44;5052553;28;20021;-70
2022/01/06 00:55:03;;;;;;;34.85;9.57;;;;;;;0.35;100.00;101439.19;5052703;28;20391;-70
2022/01/06 00:57:28;;;;;;;37.58;10.05;;;;;;;0.32;100.00;101434.69;5052504;28;20036;-70
2022/01/06 00:59:54;;;;;;;36.92;9.90;;;;;;;0.32;100.00;101434.69;5048438;28;20029;-70
2022/01/06 01:02:19;;;;;;;38.28;9.55;;;;;;;0.29;100.00;101438.81;5052435;28;20472;-70
2022/01/06 01:04:44;;;;;;;37.53;9.60;;;;;;;0.30;100.00;101430.22;5051142;28;20084;-70
2022/01/06 01:07:09;;;;;;;37.90;9.75;;;;;;;0.23;100.00;101436.78;5052434;28;20044;-70
2022/01/06 01:09:35;;;;;;;37.45;9.07;;;;;;;0.14;100.00;101433.66;5052563;28;20096;-70
2022/01/06 01:12:03;;;;;;;38.67;9.10;;;;;;;0.16;100.00;101443.34;5052392;28;20110;-70
2022/01/06 01:14:32;;;;;;;35.50;8.90;;;;;;;0.13;100.00;101440.59;5052344;28;20021;-70
2022/01/06 01:17:01;;;;;;;36.22;9.23;;;;;;;0.11;100.00;101438.69;5048565;28;20053;-70
2022/01/06 01:19:28;;;;;;;36.13;8.90;;;;;;;0.10;100.00;101436.91;5048348;28;20466;-70
2022/01/06 01:21:55;;;;;;;40.50;9.57;;;;;;;0.08;100.00;101435.94;5052012;28;20041;-70
2022/01/06 01:24:21;;;;;;;36.35;9.13;;;;;;;0.05;100.00;101443.56;5051221;28;20430;-70
2022/01/06 01:26:47;;;;;;;36.47;9.43;;;;;;;0.03;100.00;101443.47;5052218;28;20053;-69
2022/01/06 01:29:18;;;;;;;37.67;9.20;;;;;;;0.04;100.00;101446.97;5052161;28;20174;-69
2022/01/06 01:31:48;;;;;;;36.78;8.85;;;;;;;0.01;100.00;101442.47;5052245;28;20021;-70
2022/01/06 01:34:16;;;;;;;36.03;9.43;;;;;;;-0.02;100.00;101443.19;5044052;28;20032;-70
2022/01/06 01:36:43;;;;;;;36.13;9.15;;;;;;;-0.01;100.00;101444.09;5049448;28;20478;-69
2022/01/06 01:39:09;;;;;;;35.30;8.90;;;;;;;-0.04;100.00;101443.94;5052080;28;20033;-70
2022/01/06 01:41:34;;;;;;;37.65;9.30;;;;;;;-0.03;100.00;101449.22;5052256;28;20029;-70
2022/01/06 01:44:00;;;;;;;40.25;9.60;;;;;;;-0.04;100.00;101457.81;5052275;28;20025;-70
2022/01/06 01:46:30;;;;;;;40.22;9.30;;;;;;;-0.04;100.00;101465.63;5052452;28;20025;-70
2022/01/06 01:51:38;;;;;;;;;;;;;;;-0.12;100.00;101477.28;5052950;28;20043;-70
2022/01/06 01:54:03;;;;;;;41.80;9.65;;;;;;;-0.11;100.00;101479.06;5051919;28;19913;-70
2022/01/06 01:56:29;;;;;;;36.53;9.52;;;;;;;-0.10;100.00;101480.88;5055937;28;20116;-69
2022/01/06 01:58:55;;;;;;;40.50;9.20;;;;;;;-0.11;100.00;101489.47;5055381;28;20028;-69
2022/01/06 02:01:21;;;;;;;38.22;9.80;;;;;;;-0.11;100.00;101483.38;5055630;28;20493;-69
2022/01/06 02:03:46;;;;;;;44.33;9.85;;;;;;;-0.16;100.00;101496.13;5055742;28;20029;-69
2022/01/06 02:06:11;;;;;;;39.45;9.20;;;;;;;-0.14;100.00;101496.22;5055544;28;20021;-70
2022/01/06 02:08:37;;;;;;;40.67;9.30;;;;;;;-0.19;100.00;101495.91;5055556;28;20220;-69
2022/01/06 02:11:02;;;;;;;38.45;9.77;;;;;;;-0.18;100.00;101497.72;5055797;28;20021;-68
2022/01/06 02:13:29;;;;;;;37.88;9.73;;;;;;;-0.20;100.00;101495.03;5055360;28;20495;-70
2022/01/06 02:16:00;;;;;;;43.88;10.00;;;;;;;-0.15;100.00;101497.00;5055390;28;20031;-70
2022/01/06 02:18:27;;;;;;;40.58;9.27;;;;;;;-0.20;100.00;101494.16;5055533;28;20067;-69
2022/01/06 02:20:53;;;;;;;40.25;9.95;;;;;;;-0.25;100.00;101503.34;5055494;28;20394;-70
2022/01/06 02:23:21;;;;;;;39.13;8.52;;;;;;;-0.26;100.00;101499.88;5055037;28;20045;-70
2022/01/06 02:25:46;;;;;;;39.15;9.50;;;;;;;-0.23;100.00;101501.78;5055329;28;20056;-69
2022/01/06 02:28:12;;;;;;;33.80;8.60;;;;;;;-0.22;100.00;101500.94;5055073;28;20068;-70
2022/01/06 02:30:37;;;;;;;38.28;9.23;;;;;;;-0.26;100.00;101499.88;5055236;28;20840;-70
2022/01/06 02:33:04;;;;;;;38.95;9.68;;;;;;;-0.23;100.00;101509.56;5055164;28;20053;-70
2022/01/06 02:35:31;;;;;;;36.83;9.30;;;;;;;-0.22;100.00;101506.13;5055112;28;20039;-70
2022/01/06 02:37:57;;;;;;;38.80;9.27;;;;;;;-0.27;100.00;101503.28;5054821;28;20418;-70
2022/01/06 02:40:24;;;;;;;39.17;9.65;;;;;;;-0.30;100.00;101512.59;5055054;28;20446;-69
2022/01/06 02:42:53;;;;;;;37.83;9.20;;;;;;;-0.33;100.00;101508.13;5054761;28;20028;-70
2022/01/06 02:45:20;;;;;;;37.50;9.13;;;;;;;-0.39;100.00;101498.25;5054686;28;20017;-70
2022/01/06 02:47:47;;;;;;;37.85;10.10;;;;;;;-0.39;100.00;101505.16;5054950;28;20025;-69
2022/01/06 02:50:14;;;;;;;39.67;9.50;;;;;;;-0.40;100.00;101506.84;5054700;28;20029;-68
2022/01/06 02:52:40;;;;;;;39.03;9.20;;;;;;;-0.42;100.00;101498.06;5054634;28;20483;-69
2022/01/06 02:55:08;;;;;;;40.47;8.90;;;;;;;-0.39;100.00;101507.75;5054856;28;20060;-69
2022/01/06 02:57:33;;;;;;;41.50;9.60;;;;;;;-0.39;100.00;101506.06;5054822;28;20427;-70
2022/01/06 02:59:59;;;;;;;38.63;9.45;;;;;;;-0.43;100.00;101509.25;5053090;28;20158;-70
2022/01/06 03:02:24;;;;;;;39.60;9.65;;;;;;;-0.43;100.00;101506.66;5054393;28;20017;-69
2022/01/06 03:04:50;;;;;;;36.15;9.18;;;;;;;-0.47;100.00;101504.69;5054407;28;20048;-69
2022/01/06 03:07:16;;;;;;;42.55;9.98;;;;;;;-0.45;100.00;101508.28;5054326;28;20108;-70
2022/01/06 03:09:43;;;;;;;35.47;9.27;;;;;;;-0.38;100.00;101513.03;5054478;28;20025;-70
2022/01/06 03:12:20;;;;;;;41.95;9.52;;;;;;;-0.43;100.00;101514.47;5054333;28;20033;-70
2022/01/06 03:14:45;;;;;;;42.28;9.32;;;;;;;-0.46;100.00;101505.59;5051563;28;20496;-70
2022/01/06 03:17:10;;;;;;;36.58;8.93;;;;;;;-0.48;100.00;101515.00;5054323;28;20056;-69
2022/01/06 03:19:36;;;;;;;37.92;9.00;;;;;;;-0.49;100.00;101521.91;5054013;28;20468;-70
2022/01/06 03:22:01;;;;;;;40.08;9.23;;;;;;;-0.53;100.00;101520.78;5053922;28;20048;-69
2022/01/06 03:24:26;;;;;;;37.88;9.23;;;;;;;-0.57;100.00;101526.66;5054504;28;20021;-70
2022/01/06 03:26:52;;;;;;;41.50;9.15;;;;;;;-0.59;100.00;101524.75;5053935;28;20017;-70
2022/01/06 03:29:17;;;;;;;37.72;8.82;;;;;;;-0.58;100.00;101527.44;5052705;28;20454;-70
2022/01/06 03:31:43;;;;;;;42.55;9.50;;;;;;;-0.58;100.00;101537.81;5054118;28;20091;-69
2022/01/06 03:34:08;;;;;;;38.20;9.10;;;;;;;-0.54;100.00;101539.81;5054122;28;20039;-69
2022/01/06 03:36:34;;;;;;;42.40;9.38;;;;;;;-0.51;100.00;101544.31;5049288;28;20028;-70
2022/01/06 03:38:59;;;;;;;37.08;8.70;;;;;;;-0.50;100.00;101543.47;5048606;28;20064;-69
2022/01/06 03:41:25;;;;;;;38.97;9.00;;;;;;;-0.48;100.00;101547.09;5053679;28;20047;-70
2022/01/06 03:43:50;;;;;;;35.92;9.00;;;;;;;-0.38;100.00;101552.03;5053668;28;20036;-70
2022/01/06 03:46:15;;;;;;;36.00;9.52;;;;;;;-0.26;100.00;101544.06;5053751;28;20024;-69
2022/01/06 03:48:41;;;;;;;36.15;8.73;;;;;;;-0.16;100.00;101548.09;5053587;28;20078;-70
2022/01/06 03:51:07;;;;;;;37.97;8.65;;;;;;;-0.13;100.00;101548.28;5053686;28;20021;-70
2022/01/06 03:53:32;;;;;;;41.17;8.50;;;;;;;-0.21;100.00;101542.59;5053517;28;20021;-69
2022/01/06 03:55:57;;;;;;;40.35;8.60;;;;;;;-0.23;100.00;101549.44;5053429;28;20436;-70
2022/01/06 03:58:22;;;;;;;40.63;8.65;;;;;;;-0.24;100.00;101546.75;5052174;28;20071;-69
2022/01/06 04:00:48;;;;;;;40.30;8.52;;;;;;;-0.21;100.00;101549.53;5053279;28;20063;-70
2022/01/06 04:03:13;;;;;;;38.88;8.15;;;;;;;-0.18;100.00;101541.91;5053255;28;20100;-70
2022/01/06 04:05:39;;;;;;;38.67;8.15;;;;;;;-0.07;100.00;101535.63;5053560;28;20025;-70
2022/01/06 04:08:04;;;;;;;39.38;8.25;;;;;;;-0.10;100.00;101532.88;5053205;28;20052;-70
2022/01/06 04:10:30;;;;;;;34.42;7.53;;;;;;;-0.14;100.00;101536.09;5053138;28;20079;-70
2022/01/06 04:12:55;;;;;;;35.72;7.38;;;;;;;-0.21;100.00;101540.00;5053048;28;20028;-70
2022/01/06 04:15:23;;;;;;;38.58;7.93;;;;;;;-0.29;100.00;101536.09;5053038;28;20021;-70
2022/01/06 04:17:49;;;;;;;35.70;7.40;;;;;;;-0.34;100.00;101542.69;5053241;28;20029;-70
2022/01/06 04:20:14;;;;;;;34.50;7.53;;;;;;;-0.37;100.00;101547.72;5053028;28;20032;-70
2022/01/06 04:22:40;;;;;;;33.30;7.28;;;;;;;-0.40;100.00;101558.81;5052782;28;20478;-70
2022/01/06 04:25:06;;;;;;;33.90;7.63;;;;;;;-0.42;100.00;101563.03;5052954;28;20025;-70
2022/01/06 04:27:31;;;;;;;33.10;6.88;;;;;;;-0.41;100.00;101570.03;5053052;28;20025;-70
2022/01/06 04:29:56;;;;;;;35.33;7.88;;;;;;;-0.38;100.00;101574.50;5052800;28;20384;-70
2022/01/06 04:32:22;;;;;;;37.85;7.88;;;;;;;-0.42;100.00;101570.81;5052886;28;20025;-70
2022/01/06 04:34:47;;;;;;;42.33;8.52;;;;;;;-0.44;100.00;101566.34;5052760;28;20024;-70
2022/01/06 04:37:12;;;;;;;41.15;8.20;;;;;;;-0.51;100.00;101567.69;5052736;28;20024;-70
2022/01/06 04:39:38;;;;;;;35.03;7.47;;;;;;;-0.57;100.00;101554.28;5052729;28;20025;-70
2022/01/06 04:42:03;;;;;;;34.25;7.57;;;;;;;-0.63;100.00;101564.31;5052897;28;20036;-70
2022/01/06 04:44:29;;;;;;;38.25;7.82;;;;;;;-0.68;100.00;101566.63;5052723;28;20468;-70
2022/01/06 04:46:54;;;;;;;36.95;8.20;;;;;;;-0.73;100.00;101570.63;5052773;28;20021;-69
2022/01/06 04:49:19;;;;;;;36.20;7.95;;;;;;;-0.76;100.00;101573.06;5052586;28;20017;-69
2022/01/06 04:51:44;;;;;;;39.22;8.10;;;;;;;-0.81;100.00;101580.56;5052528;28;20032;-69
2022/01/06 04:54:10;;;;;;;38.58;8.20;;;;;;;-0.81;100.00;101570.19;5052720;28;20029;-69
2022/01/06 04:56:38;;;;;;;37.75;9.50;;;;;;;-0.83;100.00;101582.19;5052551;28;20120;-69
2022/01/06 04:59:08;;;;;;;40.15;8.82;;;;;;;-0.83;100.00;101584.78;5052261;28;20050;-70
2022/01/06 05:01:34;;;;;;;41.75;8.80;;;;;;;-0.77;100.00;101581.63;5052547;28;20447;-70
2022/01/06 05:04:00;;;;;;;38.03;8.85;;;;;;;-0.81;100.00;101579.69;5052296;28;20078;-70
2022/01/06 05:06:26;;;;;;;37.00;8.60;;;;;;;-0.82;100.00;101590.84;5052424;28;20387;-70
2022/01/06 05:08:51;;;;;;;37.55;8.57;;;;;;;-0.80;100.00;101590.16;5052842;28;20072;-70
2022/01/06 05:11:17;;;;;;;36.67;9.52;;;;;;;-0.82;100.00;101591.75;5052608;28;20028;-70
2022/01/06 05:13:42;;;;;;;38.00;9.15;;;;;;;-0.81;100.00;101590.94;5052351;28;20036;-70
2022/01/06 05:16:07;;;;;;;36.72;8.80;;;;;;;-0.81;100.00;101601.34;5051908;28;20082;-70
2022/01/06 05:18:34;;;;;;;39.35;9.32;;;;;;;-0.84;100.00;101600.25;5046628;28;20040;-69
2022/01/06 05:21:00;;;;;;;36.60;9.07;;;;;;;-0.84;100.00;101600.25;5052364;28;20539;-69
2022/01/06 05:23:26;;;;;;;39.40;9.38;;;;;;;-0.83;100.00;101608.16;5052286;28;20099;-70
2022/01/06 05:25:51;;;;;;;40.05;10.27;;;;;;;-0.80;100.00;101602.22;5054986;28;20387;-70
2022/01/06 05:28:17;;;;;;;43.92;10.50;;;;;;;-0.82;100.00;101609.91;5056666;28;20024;-70
2022/01/06 05:30:42;;;;;;;36.05;10.02;;;;;;;-0.84;100.00;101606.34;5056409;28;20025;-69
2022/01/06 05:33:07;;;;;;;40.13;9.90;;;;;;;-0.93;100.00;101614.44;5056018;28;20032;-70
2022/01/06 05:35:33;;;;;;;40.78;9.93;;;;;;;-0.91;100.00;101614.53;5056482;28;20050;-69
2022/01/06 05:37:58;;;;;;;39.72;10.00;;;;;;;-0.96;100.00;101610.75;5056109;28;20025;-70
2022/01/06 05:40:24;;;;;;;41.42;10.38;;;;;;;-0.99;100.00;101615.75;5056067;28;20056;-70
2022/01/06 05:42:49;;;;;;;40.08;10.25;;;;;;;-1.04;100.00;101624.94;5056396;28;20021;-70
2022/01/06 05:45:16;;;;;;;46.85;10.43;;;;;;;-1.04;100.00;101632.75;5055929;28;20079;-70
2022/01/06 05:47:41;;;;;;;40.20;10.55;;;;;;;-1.07;100.00;101630.84;5056123;28;20083;-70
2022/01/06 05:50:08;;;;;;;43.35;11.10;;;;;;;-1.04;100.00;101632.75;5055830;28;20468;-70
2022/01/06 05:52:35;;;;;;;39.15;10.98;;;;;;;-1.04;100.00;101632.75;5056064;28;20024;-70
2022/01/06 05:55:01;;;;;;;40.55;10.55;;;;;;;-1.13;100.00;101633.94;5055640;28;20033;-70
2022/01/06 05:57:26;;;;;;;38.78;10.85;;;;;;;-1.15;100.00;101635.53;5055861;28;20025;-70
2022/01/06 05:59:51;;;;;;;36.33;10.98;;;;;;;-1.12;100.00;101640.94;5055552;28;20036;-70
2022/01/06 06:02:17;;;;;;;38.00;11.35;;;;;;;-1.16;100.00;101638.94;5055597;28;20429;-70
2022/01/06 06:04:42;;;;;;;38.38;11.30;;;;;;;-1.16;100.00;101643.25;5055653;28;20467;-70
2022/01/06 06:07:07;;;;;;;43.25;11.80;;;;;;;-1.16;100.00;101657.09;5055494;28;20116;-71
2022/01/06 06:09:33;;;;;;;41.65;12.02;;;;;;;-1.15;100.00;101656.31;5055752;28;20049;-71
2022/01/06 06:11:58;;;;;;;42.83;11.68;;;;;;;-1.21;100.00;101653.28;5055743;28;20033;-71
2022/01/06 06:14:23;;;;;;;39.30;12.38;;;;;;;-1.23;100.00;101653.19;5055370;28;20028;-71
2022/01/06 06:16:49;;;;;;;42.88;12.25;;;;;;;-1.23;100.00;101665.28;5055481;28;20079;-71
2022/01/06 06:19:14;;;;;;;37.65;12.55;;;;;;;-1.27;100.00;101660.69;5055087;28;20067;-71
2022/01/06 06:21:39;;;;;;;41.20;12.50;;;;;;;-1.34;100.00;101663.66;5055308;28;20108;-71
2022/01/06 06:24:05;;;;;;;44.70;11.68;;;;;;;-1.38;100.00;101669.44;5055606;28;20365;-71
2022/01/06 06:26:31;;;;;;;37.70;12.65;;;;;;;-1.40;100.00;101666.75;5055099;28;20013;-71
2022/01/06 06:28:56;;;;;;;40.53;13.07;;;;;;;-1.38;100.00;101667.78;5047141;28;20075;-70
2022/01/06 06:31:21;;;;;;;39.05;14.63;;;;;;;-1.31;100.00;101663.88;5049520;28;20028;-70
2022/01/06 06:33:47;;;;;;;44.65;14.20;;;;;;;-1.28;100.00;101666.66;5052687;28;20017;-70
2022/01/06 06:36:12;;;;;;;37.75;13.45;;;;;;;-1.30;100.00;101679.53;5052321;28;20033;-71
2022/01/06 06:38:37;;;;;;;42.40;13.88;;;;;;;-1.31;100.00;101677.75;5052242;28;20036;-72
2022/01/06 06:41:03;;;;;;;42.17;13.77;;;;;;;-1.34;100.00;101674.06;5052518;28;20035;-71
2022/01/06 06:43:28;;;;;;;41.00;13.90;;;;;;;-1.37;100.00;101671.25;5052337;28;20024;-71
2022/01/06 06:45:54;;;;;;;40.95;14.20;;;;;;;-1.36;100.00;101691.22;5052362;28;20438;-70
2022/01/06 06:48:19;;;;;;;41.33;14.57;;;;;;;-1.37;100.00;101690.31;5051838;28;20025;-71
2022/01/06 06:50:45;;;;;;;42.95;15.45;;;;;;;-1.35;100.00;101690.44;5052045;28;20032;-71
2022/01/06 06:53:10;;;;;;;38.78;15.43;;;;;;;-1.37;100.00;101692.00;5051907;28;20364;-71
2022/01/06 06:55:36;;;;;;;43.88;15.50;;;;;;;-1.37;100.00;101699.78;5052342;28;20021;-71
2022/01/06 06:58:02;;;;;;;44.85;15.38;;;;;;;-1.43;100.00;101696.00;5052273;28;20424;-71
2022/01/06 07:00:27;;;;;;;43.40;15.07;;;;;;;-1.45;100.00;101701.88;5052076;28;20036;-71
2022/01/06 07:02:53;;;;;;;36.63;15.15;;;;;;;-1.47;100.00;101700.88;5048477;28;20044;-70
2022/01/06 07:05:18;;;;;;;44.22;15.65;;;;;;;-1.49;100.00;101705.06;5052088;28;20021;-70
2022/01/06 07:07:45;;;;;;;49.63;16.77;;;;;;;-1.46;100.00;101708.75;5052090;28;20055;-70
2022/01/06 07:10:10;;;;;;;42.13;16.40;;;;;;;-1.45;100.00;101712.25;5051860;28;20033;-71
2022/01/06 07:12:43;;;;;;;39.55;16.90;;;;;;;-1.44;100.00;101709.78;5051525;28;20075;-70
2022/01/06 07:15:11;;;;;;;42.47;15.90;;;;;;;-1.42;100.00;101712.47;5049231;28;20032;-70
2022/01/06 07:17:37;;;;;;;43.55;16.65;;;;;;;-1.43;100.00;101715.84;5066983;28;20471;-70
2022/01/06 07:20:03;;;;;;;42.28;17.08;;;;;;;-1.42;100.00;101728.03;5051747;28;20079;-70
2022/01/06 07:22:29;;;;;;;43.17;16.83;;;;;;;-1.45;100.00;101738.22;5050818;28;20049;-70
2022/01/06 07:24:54;;;;;;;42.28;16.77;;;;;;;-1.54;100.00;101728.09;5051681;28;20041;-70
2022/01/06 07:27:19;;;;;;;45.45;16.90;;;;;;;-1.49;100.00;101741.38;5051517;28;20040;-70
2022/01/06 07:29:45;;;;;;;43.92;16.48;;;;;;;-1.53;100.00;101737.69;5051703;28;20082;-71
2022/01/06 07:32:10;;;;;;;44.22;17.08;;;;;;;-1.52;100.00;101742.06;5050524;28;20036;-71
2022/01/06 07:34:35;;;;;;;41.78;16.75;;;;;;;-1.54;100.00;101738.47;5050208;28;20043;-70
2022/01/06 07:37:01;;;;;;;45.67;17.23;;;;;;;-1.53;100.00;101739.38;5049907;28;20020;-70
2022/01/06 07:39:27;;;;;;;40.55;16.77;;;;;;;-1.58;100.00;101746.84;5051248;28;20379;-71
2022/01/06 07:41:52;;;;;;;44.55;17.15;;;;;;;-1.62;100.00;101745.72;5050985;28;20041;-70
2022/01/06 07:44:17;;;;;;;47.22;17.13;;;;;;;-1.66;100.00;101745.41;5051392;28;20110;-71
2022/01/06 07:46:45;;;;;;;42.75;16.65;;;;;;;-1.69;100.00;101747.81;5051317;28;20036;-71
2022/01/06 07:49:10;;;;;;;42.05;17.00;;;;;;;-1.72;100.00;101742.41;5050639;28;20029;-71
2022/01/06 07:51:36;;;;;;;43.33;17.85;;;;;;;-1.67;100.00;101747.13;5050818;28;20032;-71
2022/01/06 07:54:01;;;;;;;46.53;18.25;;;;;;;-1.61;100.00;101746.63;5051040;28;20479;-71
2022/01/06 07:56:27;;;;;;;41.88;18.77;;;;;;;-1.53;100.00;101749.75;5051587;28;20048;-70
2022/01/06 07:58:53;;;;;;;50.38;21.50;;;;;;;-1.52;100.00;101751.56;5053123;28;20083;-70
2022/01/06 08:01:19;;;;;;;47.22;22.83;;;;;;;-1.44;100.00;101756.47;5051362;28;20025;-70
2022/01/06 08:03:44;;;;;;;49.33;21.23;;;;;;;-1.39;100.00;101748.09;5050266;28;20037;-70
2022/01/06 08:06:12;;;;;;;49.78;21.25;;;;;;;-1.34;100.00;101754.47;5050772;28;20029;-70
2022/01/06 08:08:37;;;;;;;43.22;20.15;;;;;;;-1.29;100.00;101743.63;5053334;28;20033;-70
2022/01/06 08:11:03;;;;;;;46.83;20.27;;;;;;;-1.25;100.00;101753.41;5053187;28;20379;-70
2022/01/06 08:13:29;;;;;;;47.67;20.90;;;;;;;-1.21;100.00;101754.50;5053039;28;20167;-70
2022/01/06 08:15:54;;;;;;;48.22;19.65;;;;;;;-1.19;100.00;101757.19;5053269;28;20032;-70
2022/01/06 08:18:20;;;;;;;45.42;20.25;;;;;;;-1.20;100.00;101761.50;5053146;28;20021;-70
2022/01/06 08:20:45;;;;;;;46.83;21.00;;;;;;;-1.17;100.00;101766.00;5053047;28;20023;-70
2022/01/06 08:23:10;;;;;;;52.58;22.40;;;;;;;-1.12;100.00;101762.00;5053038;28;20527;-70
2022/01/06 08:25:36;;;;;;;48.40;23.75;;;;;;;-1.08;100.00;101766.59;5053117;28;20036;-70
2022/01/06 08:28:02;;;;;;;52.55;25.45;;;;;;;-1.01;100.00;101767.91;5052914;28;20032;-71
2022/01/06 08:30:28;;;;;;;54.10;26.35;;;;;;;-0.92;100.00;101769.41;5051609;28;20029;-70
2022/01/06 08:32:55;;;;;;;52.25;26.60;;;;;;;-0.84;100.00;101771.63;5050023;28;20083;-70
2022/01/06 08:35:21;;;;;;;51.47;27.55;;;;;;;-0.75;100.00;101783.47;5052300;28;20028;-71
2022/01/06 08:37:47;;;;;;;54.00;27.45;;;;;;;-0.69;100.00;101774.31;5052813;28;20032;-70
2022/01/06 08:40:12;;;;;;;54.58;28.10;;;;;;;-0.61;100.00;101770.50;5052511;28;20036;-71
2022/01/06 08:42:37;;;;;;;51.65;26.42;;;;;;;-0.52;100.00;101771.09;5052867;28;20438;-70
2022/01/06 08:45:04;;;;;;;51.67;26.40;;;;;;;-0.39;100.00;101778.88;5052829;28;20025;-71
2022/01/06 08:47:30;;;;;;;51.22;25.83;;;;;;;-0.28;100.00;101763.94;5052462;28;20415;-71
2022/01/06 08:49:56;;;;;;;47.47;25.73;;;;;;;-0.19;100.00;101774.03;5052661;28;20021;-71
2022/01/06 08:52:22;;;;;;;48.83;25.30;;;;;;;-0.15;100.00;101768.22;5052463;28;20029;-72
2022/01/06 08:54:48;;;;;;;46.58;24.90;;;;;;;-0.07;100.00;101777.41;5052423;28;20111;-71
2022/01/06 08:57:14;;;;;;;45.63;22.02;;;;;;;-0.06;100.00;101789.59;5052697;28;20153;-71
2022/01/06 08:59:39;;;;;;;42.92;21.38;;;;;;;0.04;100.00;101790.16;5052176;28;20043;-72
2022/01/06 09:02:04;;;;;;;40.50;20.55;;;;;;;0.15;100.00;101783.94;5052417;28;20379;-72
2022/01/06 09:04:30;;;;;;;39.25;19.90;;;;;;;0.16;100.00;101789.22;5053072;28;20025;-71
2022/01/06 09:06:55;;;;;;;44.63;20.77;;;;;;;0.21;100.00;101792.09;5052445;28;20468;-71
2022/01/06 09:09:21;;;;;;;44.72;20.90;;;;;;;0.34;100.00;101794.66;5052782;28;20095;-70
2022/01/06 09:11:47;;;;;;;42.22;20.45;;;;;;;0.48;100.00;101795.50;5052874;28;20040;-71
2022/01/06 09:14:12;;;;;;;39.60;19.58;;;;;;;0.60;100.00;101802.25;5052332;28;20036;-71
2022/01/06 09:16:39;;;;;;;43.53;20.08;;;;;;;0.69;100.00;101803.69;5052359;28;20082;-71
2022/01/06 09:19:05;;;;;;;40.72;19.42;;;;;;;0.77;100.00;101803.25;5051154;28;20072;-71
2022/01/06 09:21:30;;;;;;;39.03;17.85;;;;;;;0.93;100.00;101795.53;5052331;28;20053;-71
2022/01/06 09:23:59;;;;;;;36.40;17.15;;;;;;;1.01;100.00;101809.00;5051997;28;20053;-71
2022/01/06 09:26:25;;;;;;;36.83;17.17;;;;;;;1.09;100.00;101807.72;5051029;28;20392;-71
2022/01/06 09:28:51;;;;;;;36.67;16.48;;;;;;;1.15;100.00;101807.19;5052440;28;20082;-70
2022/01/06 09:31:16;;;;;;;35.95;16.75;;;;;;;1.21;100.00;101808.47;5047890;28;20025;-70
2022/01/06 09:33:41;;;;;;;40.28;17.42;;;;;;;1.34;100.00;101819.56;5046964;28;20096;-71
2022/01/06 09:36:08;;;;;;;36.88;17.35;;;;;;;1.58;100.00;101814.88;5052171;28;20052;-71
2022/01/06 09:38:33;;;;;;;37.50;15.60;;;;;;;1.76;100.00;101819.31;5051002;28;20032;-71
2022/01/06 09:41:03;;;;;;;35.25;14.73;;;;;;;1.90;100.00;101828.81;5052101;28;20025;-70
2022/01/06 09:43:30;;;;;;;34.72;14.90;;;;;;;1.79;100.00;101823.00;5051980;28;20032;-72
2022/01/06 09:46:04;;;;;;;35.60;14.65;;;;;;;1.79;100.00;101828.22;5051599;28;20017;-72
2022/01/06 09:48:30;;;;;;;35.60;15.25;;;;;;;1.99;100.00;101826.69;5052143;28;20021;-72
2022/01/06 09:50:56;;;;;;;36.05;14.77;;;;;;;2.16;100.00;101824.13;5052036;28;20021;-72
2022/01/06 09:53:24;;;;;;;36.30;14.35;;;;;;;2.25;100.00;101827.22;5050606;28;20384;-72
2022/01/06 09:55:49;;;;;;;34.70;13.88;;;;;;;2.42;100.00;101826.41;5052307;28;20033;-72
2022/01/06 09:58:22;;;;;;;33.00;14.85;;;;;;;2.47;100.00;101833.59;5051779;28;20028;-72
2022/01/06 10:00:48;;;;;;;32.25;13.80;;;;;;;2.60;100.00;101830.81;5048297;28;20445;-72
2022/01/06 10:03:13;;;;;;;33.53;13.60;;;;;;;2.75;100.00;101830.72;5052114;28;20029;-72
2022/01/06 10:05:44;;;;;;;32.38;12.90;;;;;;;2.85;100.00;101832.09;5051893;28;20021;-72
2022/01/06 10:08:11;;;;;;;34.78;13.88;;;;;;;3.05;100.00;101827.88;5042317;28;20028;-73
2022/01/06 10:10:37;;;;;;;33.25;12.80;;;;;;;3.19;100.00;101826.88;5047628;28;20072;-73
2022/01/06 10:13:07;;;;;;;34.13;13.35;;;;;;;3.31;100.00;101826.59;5052949;28;20057;-73
2022/01/06 10:15:35;;;;;;;32.88;11.93;;;;;;;3.40;100.00;101834.88;5050321;28;20052;-71
2022/01/06 10:18:14;;;;;;;32.05;12.68;;;;;;;3.44;100.00;101830.72;5052930;28;20489;-71
2022/01/06 10:20:40;;;;;;;30.60;11.63;;;;;;;3.42;100.00;101828.00;5050443;28;20116;-71
2022/01/06 10:23:11;;;;;;;32.15;12.18;;;;;;;3.60;100.00;101833.22;5052042;28;20152;-73
2022/01/06 10:25:39;;;;;;;30.77;11.10;;;;;;;3.86;100.00;101832.69;5048581;28;20086;-72
2022/01/06 10:28:18;;;;;;;31.77;11.45;;;;;;;4.32;100.00;101821.75;5050668;28;20028;-70
2022/01/06 10:30:48;;;;;;;31.17;11.40;;;;;;;4.57;100.00;101826.34;5051929;28;20029;-71
2022/01/06 10:33:21;;;;;;;28.73;10.32;;;;;;;4.85;100.00;101819.72;5051178;28;20021;-71
2022/01/06 10:35:48;;;;;;;29.52;9.98;;;;;;;4.71;100.00;101824.34;5052244;28;20048;-72
2022/01/06 10:38:13;;;;;;;30.13;10.10;;;;;;;4.34;100.00;101809.63;5052659;28;20120;-72
2022/01/06 10:40:39;;;;;;;27.80;9.65;;;;;;;4.30;100.00;101816.44;5052413;28;20155;-72
2022/01/06 10:43:06;;;;;;;27.88;9.50;;;;;;;4.42;100.00;101823.94;5052035;28;20025;-73
2022/01/06 10:45:33;;;;;;;30.58;9.25;;;;;;;5.13;100.00;101823.53;5052093;28;20479;-72
2022/01/06 10:48:03;;;;;;;27.38;9.10;;;;;;;5.88;100.00;101820.41;5050078;28;20463;-72
2022/01/06 10:50:31;;;;;;;27.05;8.50;;;;;;;6.19;100.00;101819.91;5052461;28;20032;-72
2022/01/06 10:53:10;;;;;;;28.88;8.50;;;;;;;6.53;100.00;101812.38;5051377;28;20502;-72
2022/01/06 10:55:38;;;;;;;26.27;7.88;;;;;;;6.86;100.00;101810.06;5052420;28;20159;-72
2022/01/06 10:58:09;;;;;;;30.42;7.93;;;;;;;7.63;96.80;101815.25;5050394;28;20396;-71
2022/01/06 11:00:39;;;;;;;26.67;7.40;;;;;;;8.22;90.41;101811.78;5050635;28;20036;-74
2022/01/06 11:03:19;;;;;;;25.75;7.90;;;;;;;8.76;89.24;101813.31;5050011;28;20037;-71
2022/01/06 11:05:52;;;;;;;24.23;6.95;;;;;;;8.69;84.88;101812.28;5050677;28;20028;-71
2022/01/06 11:08:29;;;;;;;26.63;7.68;;;;;;;8.60;85.30;101809.38;5050117;28;20091;-72
2022/01/06 11:13:41;;;;;;;22.40;6.47;;;;;;;9.34;83.56;101803.38;5049481;28;20040;-72
2022/01/06 11:16:08;;;;;;;27.20;6.80;;;;;;;9.56;78.52;101796.88;5051271;28;20025;-72
2022/01/06 11:18:38;;;;;;;24.00;6.03;;;;;;;10.00;77.19;101801.38;5049038;28;20069;-72
2022/01/06 11:21:13;;;;;;;25.00;5.97;;;;;;;10.18;75.58;101802.63;5052411;28;20387;-72
2022/01/06 11:23:39;;;;;;;25.80;6.20;;;;;;;10.28;75.56;101794.03;5049028;28;20102;-72